• Join FlightAware (Why Join?)
  • Login
  • US Flag 
10:24AM EST


 

Airport Tracker/Info


-or-


 

Live Flight TrackerFlight Track Log ✈ RXA629 ✈ 07-Oct-2013 ✈ YBTH / BHS - YSSY / SYD

Flight Track Log - Related Links

Times and Time Zones

All times are in EDT time to prevent confusion due to time zone crossing. See the RXA629 flight status page for this flight to view local times or setup timezone preferences in your user account.

Time Position Orientation Groundspeed Altitude Reporting Facility
EDT Latitude Longitude Course Direction KTS MPH feet Rate Location/Type
02:07AM -33.4835 149.6967 152° Southeast 155 178 6,400  Level Aus ATC (RADAR)
02:07AM -33.4933 149.7030 152° Southeast 156 180 6,900 1,800 Climbing Aus ATC (RADAR)
02:08AM -33.5420 149.7320 152° Southeast 162 186 9,100 1,620 Climbing FlightAware
02:08AM -33.5560 149.7390 157° South 164 189 9,500 1,260 Climbing FlightAware
02:09AM -33.5710 149.7480 153° Southeast 163 188 10,000 960 Climbing FlightAware
02:09AM -33.5980 149.7630 155° Southeast 196 226 10,400 840 Climbing FlightAware
02:10AM -33.6270 149.7800 154° Southeast 203 234 11,000 1,140 Climbing FlightAware
02:11AM -33.6570 149.7980 153° Southeast 198 228 11,800 1,020 Climbing FlightAware
02:11AM -33.6840 149.8140 154° Southeast 201 231 12,400 900 Climbing FlightAware
02:12AM -33.7257 149.8381 154° Southeast 213 245 13,000 420 Climbing FlightAware ADS-B (YRAY)
02:13AM -33.7640 149.8599 155° Southeast 235 270 13,000  Level FlightAware ADS-B (YRAY)
02:13AM -33.7983 149.8801 154° Southeast 259 298 13,000  Level FlightAware ADS-B (YRAY)
02:13AM -33.8123 149.8924 144° Southeast 260 299 13,000  Level FlightAware ADS-B (YRAY)
02:14AM -33.8466 149.9354 144° Southeast 268 308 13,000  Level Aus ATC (RADAR)
02:14AM -33.8480 149.9380 144° Southeast 270 311 13,000  Level FlightAware
02:15AM -33.6583 149.7990 329° Northwest 280 322 13,000  Level FlightAware ADS-B
02:15AM -33.8921 149.9949 145° Southeast 260 299 13,000  Level FlightAware ADS-B (YRAY)
02:15AM -33.9245 150.0369 133° Southeast 285 328 13,000  Level FlightAware ADS-B
02:16AM -33.9522 150.0727 133° Southeast 282 325 13,000  Level FlightAware ADS-B
02:16AM -33.9783 150.1065 133° Southeast 283 326 13,000  Level FlightAware ADS-B
02:17AM -34.0087 150.1456 133° Southeast 283 326 13,000  Level FlightAware ADS-B
02:17AM -34.0357 150.1801 133° Southeast 284 327 13,000  Level FlightAware ADS-B
02:18AM -34.0644 150.2171 133° Southeast 284 327 13,000  Level FlightAware ADS-B
02:19AM -34.0924 150.2533 133° Southeast 284 327 13,000  Level FlightAware ADS-B
02:19AM -34.1137 150.2807 133° Southeast 284 327 13,000  Level FlightAware ADS-B (YRAY)
02:19AM -34.1237 150.2964 128° Southeast 292 336 13,000  Level FlightAware ADS-B (YRAY)
02:19AM -34.1282 150.3140 107° East 299 344 13,000  Level FlightAware ADS-B (YRAY)
02:19AM -34.1288 150.3253 94° East 301 346 13,000  Level FlightAware ADS-B (YRAY)
02:20AM -34.1252 150.3591 83° East 308 354 13,000 -300 Level FlightAware ADS-B
02:20AM -34.1176 150.3944 76° East 305 351 12,800 -660 Descending FlightAware ADS-B (YRAY)
02:20AM -34.1144 150.4080 74° East 312 359 12,700 -480 Descending FlightAware ADS-B (YRAY)
02:20AM -34.1121 150.4175 74° East 316 364 12,700 -600 Level FlightAware ADS-B
02:21AM -34.0973 150.4793 74° East 317 365 12,300 -660 Descending FlightAware ADS-B
02:21AM -34.0927 150.4994 75° East 317 365 12,200 -900 Descending FlightAware ADS-B (YRAY)
02:22AM -34.0816 150.5497 75° East 313 360 11,700 -1,320 Descending FlightAware ADS-B
02:22AM -34.0707 150.6009 76° East 309 356 10,900 -1,800 Descending FlightAware ADS-B (YRAY)
02:22AM -34.0672 150.6175 76° East 312 359 10,500 -2,520 Descending FlightAware ADS-B (YRAY)
02:23AM -34.0607 150.6500 76° East 307 353 9,700 -2,700 Descending FlightAware ADS-B (YRAY)
02:23AM -34.0535 150.6848 76° East 301 346 8,700 -2,700 Descending FlightAware ADS-B (YRAY)
02:23AM -34.0486 150.7084 76° East 299 344 8,000 -2,640 Descending FlightAware ADS-B
02:24AM -34.0428 150.7352 75° East 299 344 7,300 -2,280 Descending FlightAware ADS-B
02:24AM -34.0395 150.7501 75° East 291 335 7,100 -720 Descending FlightAware ADS-B
02:24AM -34.0363 150.7641 75° East 288 331 7,100 -300 Level FlightAware ADS-B (YRAY)
02:24AM -34.0326 150.7805 75° East 288 331 7,000 -660 Descending FlightAware ADS-B (YRAY)
02:24AM -34.0295 150.7943 75° East 292 336 6,900 -600 Descending FlightAware ADS-B
02:24AM -34.0251 150.8129 74° East 292 336 6,800 -600 Descending FlightAware ADS-B
02:25AM -34.0217 150.8269 74° East 292 336 6,700 -480 Descending FlightAware ADS-B
02:25AM -34.0171 150.8462 74° East 282 325 6,600 -420 Descending FlightAware ADS-B
02:25AM -34.0107 150.8734 74° East 279 321 6,500 -600 Descending FlightAware ADS-B (YRAY)
02:25AM -34.0056 150.8951 74° East 280 322 6,300 -600 Descending FlightAware ADS-B
02:26AM -34.0008 150.9155 74° East 278 320 6,200 -360 Descending FlightAware ADS-B
02:26AM -33.9934 150.9471 74° East 273 314 6,100 -180 Descending FlightAware ADS-B (YRAY)
02:26AM -33.9877 150.9718 74° East 270 311 6,100  Level FlightAware ADS-B
02:26AM -33.9811 151.0014 75° East 263 303 6,100  Level FlightAware ADS-B
02:27AM -33.9750 151.0305 76° East 260 299 6,100  Level FlightAware ADS-B
02:27AM -33.9688 151.0605 76° East 260 299 6,100  Level FlightAware ADS-B
02:27AM -33.9657 151.0750 76° East 254 292 6,100  Level FlightAware ADS-B (YRAY)
02:28AM -33.9625 151.0881 73° East 248 285 6,100  Level FlightAware ADS-B (YRAY)
02:28AM -33.9583 151.0962 58° Northeast 240 276 6,100  Level FlightAware ADS-B
02:28AM -33.9483 151.1050 36° Northeast 228 262 6,100  Level FlightAware ADS-B
02:28AM -33.9386 151.1073 11° North 217 250 6,100 -300 Level FlightAware ADS-B
02:28AM -33.9289 151.1042 345° North 205 236 6,000  Descending FlightAware ADS-B
02:28AM -33.9221 151.0975 321° Northwest 193 222 6,100 -420 Climbing FlightAware ADS-B
02:29AM -33.9093 151.0801 312° West 181 208 5,800 -1,560 Descending FlightAware ADS-B (YRAY)
02:29AM -33.9039 151.0722 309° West 192 221 5,300 -2,760 Descending FlightAware ADS-B (YRAY)
02:29AM -33.8915 151.0534 308° West 215 247 4,400 -1,740 Descending FlightAware ADS-B
02:30AM -33.8796 151.0347 307° West 225 259 4,100 -660 Descending FlightAware ADS-B
02:30AM -33.8732 151.0245 307° West 219 252 4,100  Level FlightAware ADS-B (YRAY)
02:30AM -33.8608 151.0048 307° West 214 246 4,100 -180 Level FlightAware ADS-B (YRAY)
02:30AM -33.8527 150.9921 307° West 209 241 4,000 -300 Descending FlightAware ADS-B
02:30AM -33.8480 150.9874 320° Northwest 201 231 4,000  Level FlightAware ADS-B (YRAY)
02:30AM -33.8437 150.9850 336° Northwest 204 235 4,000 660 Level FlightAware ADS-B
02:30AM -33.8396 150.9839 347° North 195 224 4,100 600 Climbing FlightAware ADS-B (YRAY)
02:31AM -33.8343 150.9838 359° North 199 229 4,100 -300 Level FlightAware ADS-B
02:31AM -33.8202 150.9846 North 197 227 4,000  Descending FlightAware ADS-B
02:31AM -33.8168 150.9848 North 198 228 4,100 240 Climbing FlightAware ADS-B (YRAY)
02:31AM -33.7974 150.9862 North 205 236 4,100  Level FlightAware ADS-B
02:32AM -33.7784 150.9876 North 212 244 4,100 -180 Level FlightAware ADS-B
02:32AM -33.7604 150.9902 North 213 245 4,000 -780 Descending FlightAware ADS-B
02:32AM -33.7551 150.9935 28° Northeast 220 253 3,800 -1,620 Descending FlightAware ADS-B
02:32AM -33.7471 151.0051 50° Northeast 223 257 3,500 -1,320 Descending FlightAware ADS-B
02:33AM -33.7417 151.0252 72° East 238 274 3,100 -780 Descending FlightAware ADS-B
02:33AM -33.7380 151.0443 77° East 233 268 3,100 -420 Level FlightAware ADS-B
02:33AM -33.7465 151.0684 113° Southeast 226 260 2,900 -600 Descending FlightAware ADS-B
02:33AM -33.7502 151.0721 141° Southeast 229 264 2,800 -420 Descending FlightAware ADS-B
02:34AM -33.7726 151.0910 145° Southeast 212 244 2,700 -360 Descending FlightAware ADS-B
02:34AM -33.7865 151.1024 146° Southeast 187 215 2,600 -480 Descending FlightAware ADS-B
02:34AM -33.8007 151.1141 145° Southeast 176 203 2,400 -420 Descending FlightAware ADS-B
02:35AM -33.8172 151.1279 145° Southeast 169 194 2,300 -420 Descending FlightAware ADS-B
02:35AM -33.8293 151.1385 144° Southeast 158 182 2,100 -780 Descending FlightAware ADS-B
02:35AM -33.8407 151.1461 151° Southeast 145 167 1,800 -600 Descending FlightAware ADS-B
02:36AM -33.8541 151.1510 163° South 135 155 1,700 -600 Descending FlightAware ADS-B
02:36AM -33.8660 151.1546 166° South 126 145 1,400 -780 Descending FlightAware ADS-B
02:36AM -33.8769 151.1576 167° South 130 150 1,200 -720 Descending FlightAware ADS-B
02:37AM -33.8854 151.1600 167° South 116 133 1,000 -720 Descending FlightAware ADS-B (YRAY)
02:37AM -33.8965 151.1630 167° South 116 133 800 -600 Descending FlightAware ADS-B (YRAY)
02:37AM -33.9074 151.1658 168° South 105 121 600 -600 Descending FlightAware ADS-B (YRAY)
02:38AM -33.9171 151.1684 168° South 98 113 400 -600 Descending FlightAware ADS-B (YRAY)
02:38AM -33.9268 151.1709 168° South 100 115 200 -540 Descending FlightAware ADS-B (YRAY)
02:38AM -33.9341 151.1728 168° South 84 97 100 -420 Descending FlightAware ADS-B (YRAY)